Main page
METAR-TAF:

METAR-TAF

Airports :

Xi'an, China

Xi'an Xianyang International Airport

latitude: 34-26N, longitude: 108-45E, elevation: 479 m

Current weather observation

The report was made 1 hour and 4 minutes ago, at 14:00 UTC
Wind 4 kt from the Southwest
Temperature 12°C
Humidity 62%
Pressure 1020 hPa
Visibility: 2500 m
Broken clouds at a height of 6000 ft
haze

METAR: ZLXY 291400Z 23002MPS 2500 HZ BKN060 12/05 Q1020 NOSIG

Time: 23:04 (15:04 UTC)

Forecast

The report was made 5 hours and 54 minutes ago, at 09:10 UTC
Forecast valid from 29 at 12 UTC to 30 at 12 UTC
Wind 8 kt from the West
Visibility: 3000 m
Few clouds at a height of 2000 ft
Overcast at a height of 6000 ft
light rain, mist
Becoming
from 29 at 21 UTC to 29 at 22 UTC
Visibility: 2400 m
light rain, mist
Becoming
from 30 at 02 UTC to 30 at 03 UTC
Visibility: 4000 m
haze

TAF: ZLXY 290910Z 2912/3012 27004MPS 3000 -RA BR FEW020 OVC060 TX17/3007Z TN08/2923Z BECMG 2921/2922 2400 -RA BR BECMG 3002/3003 4000 HZ

Weather observations and forecasts of more than 4000 airports (METAR and TAF reports).

The available stations are represented by yellow and red dots on the map.

Hover mouse over dot to see the name of the station.

Then click to see weather observations and forecasts.

To change the map : click on the green buttons with a black cross to zoom in, on the green button with a dash to zoom out, or on the green arrows for adjacent maps.


METAR-TAF: